sensor_id;sensor_type;location;lat;lon;timestamp;P1;durP1;ratioP1;P2;durP2;ratioP2
39314;SDS011;28703;44.412;11.918;2023-09-19T00:00:57;203.68;;;183.45;;
39314;SDS011;28703;44.412;11.918;2023-09-19T00:03:23;139.45;;;127.63;;
39314;SDS011;28703;44.412;11.918;2023-09-19T00:05:53;225.07;;;202.43;;
39314;SDS011;28703;44.412;11.918;2023-09-19T00:08:20;229.70;;;206.63;;
39314;SDS011;28703;44.412;11.918;2023-09-19T00:10:50;210.10;;;189.75;;
39314;SDS011;28703;44.412;11.918;2023-09-19T00:13:16;237.38;;;214.50;;
39314;SDS011;28703;44.412;11.918;2023-09-19T00:15:45;244.00;;;219.40;;
39314;SDS011;28703;44.412;11.918;2023-09-19T00:18:14;207.35;;;187.98;;
39314;SDS011;28703;44.412;11.918;2023-09-19T00:20:41;82.68;;;75.25;;
39314;SDS011;28703;44.412;11.918;2023-09-19T00:23:07;189.30;;;172.00;;
39314;SDS011;28703;44.412;11.918;2023-09-19T00:25:34;196.57;;;179.25;;
39314;SDS011;28703;44.412;11.918;2023-09-19T00:28:19;188.75;;;172.55;;
39314;SDS011;28703;44.412;11.918;2023-09-19T00:30:54;220.80;;;199.77;;
39314;SDS011;28703;44.412;11.918;2023-09-19T00:33:20;171.50;;;156.57;;
39314;SDS011;28703;44.412;11.918;2023-09-19T00:36:05;229.90;;;210.70;;
39314;SDS011;28703;44.412;11.918;2023-09-19T00:38:31;213.50;;;193.05;;
39314;SDS011;28703;44.412;11.918;2023-09-19T00:40:57;176.30;;;160.77;;
39314;SDS011;28703;44.412;11.918;2023-09-19T00:43:42;221.45;;;200.13;;
39314;SDS011;28703;44.412;11.918;2023-09-19T00:46:27;317.13;;;289.88;;
39314;SDS011;28703;44.412;11.918;2023-09-19T00:48:53;127.43;;;116.43;;
39314;SDS011;28703;44.412;11.918;2023-09-19T00:54:07;186.40;;;170.00;;
39314;SDS011;28703;44.412;11.918;2023-09-19T00:56:34;223.85;;;203.35;;
39314;SDS011;28703;44.412;11.918;2023-09-19T00:59:00;209.98;;;190.80;;
39314;SDS011;28703;44.412;11.918;2023-09-19T01:01:44;156.07;;;140.90;;
39314;SDS011;28703;44.412;11.918;2023-09-19T01:04:11;245.73;;;221.85;;
39314;SDS011;28703;44.412;11.918;2023-09-19T01:06:56;158.77;;;143.90;;
39314;SDS011;28703;44.412;11.918;2023-09-19T01:09:25;157.70;;;143.20;;
39314;SDS011;28703;44.412;11.918;2023-09-19T01:11:53;122.03;;;111.80;;
39314;SDS011;28703;44.412;11.918;2023-09-19T01:14:44;211.05;;;193.00;;
39314;SDS011;28703;44.412;11.918;2023-09-19T01:17:34;298.73;;;273.85;;
39314;SDS011;28703;44.412;11.918;2023-09-19T01:22:52;135.73;;;123.97;;
39314;SDS011;28703;44.412;11.918;2023-09-19T01:26:09;162.68;;;147.13;;
39314;SDS011;28703;44.412;11.918;2023-09-19T01:31:56;156.40;;;142.30;;
39314;SDS011;28703;44.412;11.918;2023-09-19T01:34:43;203.95;;;183.48;;
39314;SDS011;28703;44.412;11.918;2023-09-19T01:37:11;350.17;;;320.90;;
39314;SDS011;28703;44.412;11.918;2023-09-19T01:39:37;220.10;;;198.45;;
39314;SDS011;28703;44.412;11.918;2023-09-19T01:42:12;157.35;;;143.00;;
39314;SDS011;28703;44.412;11.918;2023-09-19T01:47:23;167.80;;;151.88;;
39314;SDS011;28703;44.412;11.918;2023-09-19T01:50:17;215.48;;;192.63;;
39314;SDS011;28703;44.412;11.918;2023-09-19T01:55:49;75.90;;;68.85;;
39314;SDS011;28703;44.412;11.918;2023-09-19T02:01:17;79.60;;;72.57;;
39314;SDS011;28703;44.412;11.918;2023-09-19T02:03:47;89.80;;;81.75;;
39314;SDS011;28703;44.412;11.918;2023-09-19T02:06:51;106.90;;;97.18;;
39314;SDS011;28703;44.412;11.918;2023-09-19T02:09:17;110.70;;;100.68;;
39314;SDS011;28703;44.412;11.918;2023-09-19T02:11:44;188.60;;;173.90;;
39314;SDS011;28703;44.412;11.918;2023-09-19T02:16:54;233.02;;;213.07;;
39314;SDS011;28703;44.412;11.918;2023-09-19T02:19:21;269.63;;;247.90;;
39314;SDS011;28703;44.412;11.918;2023-09-19T02:21:48;291.25;;;269.23;;
39314;SDS011;28703;44.412;11.918;2023-09-19T02:24:14;234.18;;;215.48;;
39314;SDS011;28703;44.412;11.918;2023-09-19T02:26:41;192.43;;;173.55;;
39314;SDS011;28703;44.412;11.918;2023-09-19T02:32:11;67.43;;;62.25;;
39314;SDS011;28703;44.412;11.918;2023-09-19T02:34:37;55.00;;;50.50;;
39314;SDS011;28703;44.412;11.918;2023-09-19T02:37:23;153.80;;;139.52;;
39314;SDS011;28703;44.412;11.918;2023-09-19T02:39:48;105.45;;;96.53;;
39314;SDS011;28703;44.412;11.918;2023-09-19T02:42:14;173.02;;;155.48;;
39314;SDS011;28703;44.412;11.918;2023-09-19T02:44:40;62.92;;;57.53;;
39314;SDS011;28703;44.412;11.918;2023-09-19T02:49:51;27.83;;;23.38;;
39314;SDS011;28703;44.412;11.918;2023-09-19T02:52:17;169.80;;;153.65;;
39314;SDS011;28703;44.412;11.918;2023-09-19T02:54:43;336.42;;;309.67;;
39314;SDS011;28703;44.412;11.918;2023-09-19T02:57:10;248.98;;;229.18;;
39314;SDS011;28703;44.412;11.918;2023-09-19T02:59:36;819.13;;;723.55;;
39314;SDS011;28703;44.412;11.918;2023-09-19T03:02:20;780.13;;;694.38;;
39314;SDS011;28703;44.412;11.918;2023-09-19T03:04:50;159.52;;;146.70;;
39314;SDS011;28703;44.412;11.918;2023-09-19T03:07:34;218.05;;;200.95;;
39314;SDS011;28703;44.412;11.918;2023-09-19T03:10:03;596.60;;;537.58;;
39314;SDS011;28703;44.412;11.918;2023-09-19T03:12:30;693.88;;;622.95;;
39314;SDS011;28703;44.412;11.918;2023-09-19T03:14:58;659.40;;;591.78;;
39314;SDS011;28703;44.412;11.918;2023-09-19T03:17:25;755.33;;;672.80;;
39314;SDS011;28703;44.412;11.918;2023-09-19T03:19:51;712.55;;;638.00;;
39314;SDS011;28703;44.412;11.918;2023-09-19T03:22:17;98.82;;;91.20;;
39314;SDS011;28703;44.412;11.918;2023-09-19T03:24:43;197.52;;;177.93;;
39314;SDS011;28703;44.412;11.918;2023-09-19T03:27:10;81.65;;;75.00;;
39314;SDS011;28703;44.412;11.918;2023-09-19T03:29:36;229.75;;;212.20;;
39314;SDS011;28703;44.412;11.918;2023-09-19T03:32:03;206.70;;;189.40;;
39314;SDS011;28703;44.412;11.918;2023-09-19T03:34:30;220.02;;;202.25;;
39314;SDS011;28703;44.412;11.918;2023-09-19T03:36:56;148.88;;;135.07;;
39314;SDS011;28703;44.412;11.918;2023-09-19T03:39:22;219.95;;;201.80;;
39314;SDS011;28703;44.412;11.918;2023-09-19T03:41:48;241.88;;;221.45;;
39314;SDS011;28703;44.412;11.918;2023-09-19T03:44:15;125.32;;;114.13;;
39314;SDS011;28703;44.412;11.918;2023-09-19T03:46:40;115.53;;;105.43;;
39314;SDS011;28703;44.412;11.918;2023-09-19T03:49:06;219.88;;;200.50;;
39314;SDS011;28703;44.412;11.918;2023-09-19T03:51:33;203.50;;;185.73;;
39314;SDS011;28703;44.412;11.918;2023-09-19T03:53:59;311.90;;;284.33;;
39314;SDS011;28703;44.412;11.918;2023-09-19T03:56:25;54.60;;;49.47;;
39314;SDS011;28703;44.412;11.918;2023-09-19T03:58:51;854.08;;;704.15;;
39314;SDS011;28703;44.412;11.918;2023-09-19T04:01:17;1017.22;;;802.83;;
39314;SDS011;28703;44.412;11.918;2023-09-19T04:03:44;1043.07;;;785.08;;
39314;SDS011;28703;44.412;11.918;2023-09-19T04:06:16;1000.40;;;780.00;;
39314;SDS011;28703;44.412;11.918;2023-09-19T04:08:43;55.58;;;50.95;;
39314;SDS011;28703;44.412;11.918;2023-09-19T04:11:10;104.68;;;93.88;;
39314;SDS011;28703;44.412;11.918;2023-09-19T04:13:36;178.48;;;163.52;;
39314;SDS011;28703;44.412;11.918;2023-09-19T04:16:03;44.85;;;41.33;;
39314;SDS011;28703;44.412;11.918;2023-09-19T04:18:47;65.30;;;59.80;;
39314;SDS011;28703;44.412;11.918;2023-09-19T04:21:12;110.55;;;99.85;;
39314;SDS011;28703;44.412;11.918;2023-09-19T04:23:38;150.27;;;137.23;;
39314;SDS011;28703;44.412;11.918;2023-09-19T04:26:04;175.05;;;159.23;;
39314;SDS011;28703;44.412;11.918;2023-09-19T04:28:49;91.70;;;83.22;;
39314;SDS011;28703;44.412;11.918;2023-09-19T04:31:15;152.57;;;138.57;;
39314;SDS011;28703;44.412;11.918;2023-09-19T04:36:30;808.20;;;701.50;;
39314;SDS011;28703;44.412;11.918;2023-09-19T04:38:56;866.22;;;720.08;;
39314;SDS011;28703;44.412;11.918;2023-09-19T04:41:40;944.72;;;745.38;;
39314;SDS011;28703;44.412;11.918;2023-09-19T04:44:06;1848.00;;;980.25;;
39314;SDS011;28703;44.412;11.918;2023-09-19T04:46:36;1854.30;;;976.63;;
39314;SDS011;28703;44.412;11.918;2023-09-19T04:49:01;1158.95;;;801.83;;
39314;SDS011;28703;44.412;11.918;2023-09-19T04:51:46;90.18;;;82.28;;
39314;SDS011;28703;44.412;11.918;2023-09-19T04:54:31;1711.60;;;942.03;;
39314;SDS011;28703;44.412;11.918;2023-09-19T04:56:56;1648.07;;;942.58;;
39314;SDS011;28703;44.412;11.918;2023-09-19T04:59:22;1789.20;;;969.05;;
39314;SDS011;28703;44.412;11.918;2023-09-19T05:01:48;1917.95;;;991.65;;
39314;SDS011;28703;44.412;11.918;2023-09-19T05:04:14;748.95;;;667.22;;
39314;SDS011;28703;44.412;11.918;2023-09-19T05:06:39;1407.65;;;862.08;;
39314;SDS011;28703;44.412;11.918;2023-09-19T05:11:50;1734.05;;;958.80;;
39314;SDS011;28703;44.412;11.918;2023-09-19T05:14:18;1847.03;;;978.03;;
39314;SDS011;28703;44.412;11.918;2023-09-19T05:16:46;1874.05;;;981.55;;
39314;SDS011;28703;44.412;11.918;2023-09-19T05:19:30;33.65;;;28.15;;
39314;SDS011;28703;44.412;11.918;2023-09-19T05:21:56;1076.95;;;781.55;;
39314;SDS011;28703;44.412;11.918;2023-09-19T05:24:22;1840.05;;;975.10;;
39314;SDS011;28703;44.412;11.918;2023-09-19T05:27:07;708.17;;;633.97;;
39314;SDS011;28703;44.412;11.918;2023-09-19T05:29:33;1898.45;;;989.35;;
39314;SDS011;28703;44.412;11.918;2023-09-19T05:31:59;1031.10;;;761.50;;
39314;SDS011;28703;44.412;11.918;2023-09-19T05:34:25;750.38;;;672.17;;
39314;SDS011;28703;44.412;11.918;2023-09-19T05:39:58;1823.15;;;969.72;;
39314;SDS011;28703;44.412;11.918;2023-09-19T05:42:24;799.22;;;713.28;;
39314;SDS011;28703;44.412;11.918;2023-09-19T05:45:08;781.75;;;700.42;;
39314;SDS011;28703;44.412;11.918;2023-09-19T05:47:37;843.90;;;750.88;;
39314;SDS011;28703;44.412;11.918;2023-09-19T05:50:06;1998.97;;;998.63;;
39314;SDS011;28703;44.412;11.918;2023-09-19T05:52:35;1656.57;;;936.53;;
39314;SDS011;28703;44.412;11.918;2023-09-19T05:55:05;1979.68;;;996.53;;
39314;SDS011;28703;44.412;11.918;2023-09-19T05:57:51;1953.82;;;987.00;;
39314;SDS011;28703;44.412;11.918;2023-09-19T06:00:18;1988.97;;;998.20;;
39314;SDS011;28703;44.412;11.918;2023-09-19T06:02:49;1971.95;;;991.10;;
39314;SDS011;28703;44.412;11.918;2023-09-19T06:05:18;1909.85;;;980.67;;
39314;SDS011;28703;44.412;11.918;2023-09-19T06:07:45;1819.38;;;967.00;;
39314;SDS011;28703;44.412;11.918;2023-09-19T06:10:12;1404.88;;;857.38;;
39314;SDS011;28703;44.412;11.918;2023-09-19T06:12:38;1435.72;;;860.95;;
39314;SDS011;28703;44.412;11.918;2023-09-19T06:15:05;1851.63;;;983.97;;
39314;SDS011;28703;44.412;11.918;2023-09-19T06:17:34;1849.75;;;967.00;;
39314;SDS011;28703;44.412;11.918;2023-09-19T06:20:05;1999.90;;;998.85;;
39314;SDS011;28703;44.412;11.918;2023-09-19T06:22:50;1805.85;;;960.92;;
39314;SDS011;28703;44.412;11.918;2023-09-19T06:25:17;1150.97;;;799.90;;
39314;SDS011;28703;44.412;11.918;2023-09-19T06:27:50;1865.93;;;987.22;;
39314;SDS011;28703;44.412;11.918;2023-09-19T06:30:18;1496.63;;;909.00;;
39314;SDS011;28703;44.412;11.918;2023-09-19T06:32:45;1608.10;;;928.38;;
39314;SDS011;28703;44.412;11.918;2023-09-19T06:35:11;1993.18;;;998.15;;
39314;SDS011;28703;44.412;11.918;2023-09-19T06:37:38;1704.75;;;952.72;;
39314;SDS011;28703;44.412;11.918;2023-09-19T06:42:50;1783.78;;;968.33;;
39314;SDS011;28703;44.412;11.918;2023-09-19T06:45:18;1710.32;;;956.35;;
39314;SDS011;28703;44.412;11.918;2023-09-19T06:47:48;1972.35;;;998.33;;
39314;SDS011;28703;44.412;11.918;2023-09-19T06:50:16;1738.15;;;964.30;;
39314;SDS011;28703;44.412;11.918;2023-09-19T06:52:44;1455.63;;;870.58;;
39314;SDS011;28703;44.412;11.918;2023-09-19T06:55:13;1688.07;;;962.60;;
39314;SDS011;28703;44.412;11.918;2023-09-19T06:57:44;1842.65;;;971.63;;
39314;SDS011;28703;44.412;11.918;2023-09-19T07:00:10;1782.45;;;984.40;;
39314;SDS011;28703;44.412;11.918;2023-09-19T07:02:59;1594.35;;;952.00;;
39314;SDS011;28703;44.412;11.918;2023-09-19T07:05:35;1418.75;;;909.22;;
39314;SDS011;28703;44.412;11.918;2023-09-19T07:08:02;1320.72;;;876.53;;
39314;SDS011;28703;44.412;11.918;2023-09-19T07:10:29;1583.38;;;966.72;;
39314;SDS011;28703;44.412;11.918;2023-09-19T07:13:14;1918.80;;;995.22;;
39314;SDS011;28703;44.412;11.918;2023-09-19T07:15:42;1248.70;;;881.60;;
39314;SDS011;28703;44.412;11.918;2023-09-19T07:18:15;1742.82;;;980.92;;
39314;SDS011;28703;44.412;11.918;2023-09-19T07:21:00;1570.80;;;958.78;;
39314;SDS011;28703;44.412;11.918;2023-09-19T07:23:30;1629.57;;;969.72;;
39314;SDS011;28703;44.412;11.918;2023-09-19T07:26:00;1768.15;;;986.17;;
39314;SDS011;28703;44.412;11.918;2023-09-19T07:28:26;1598.80;;;964.75;;
39314;SDS011;28703;44.412;11.918;2023-09-19T07:30:53;1651.38;;;974.95;;
39314;SDS011;28703;44.412;11.918;2023-09-19T07:33:19;1653.18;;;976.78;;
39314;SDS011;28703;44.412;11.918;2023-09-19T07:35:45;1450.97;;;933.97;;
39314;SDS011;28703;44.412;11.918;2023-09-19T07:38:31;1432.60;;;930.67;;
39314;SDS011;28703;44.412;11.918;2023-09-19T07:41:00;876.55;;;765.90;;
39314;SDS011;28703;44.412;11.918;2023-09-19T07:43:27;1139.60;;;829.42;;
39314;SDS011;28703;44.412;11.918;2023-09-19T07:45:53;1507.88;;;940.42;;
39314;SDS011;28703;44.412;11.918;2023-09-19T07:48:19;1421.85;;;917.65;;
39314;SDS011;28703;44.412;11.918;2023-09-19T07:53:31;1403.10;;;933.25;;
39314;SDS011;28703;44.412;11.918;2023-09-19T07:56:06;1506.97;;;938.67;;
39314;SDS011;28703;44.412;11.918;2023-09-19T07:58:33;1289.25;;;907.60;;
39314;SDS011;28703;44.412;11.918;2023-09-19T08:01:02;1265.40;;;924.15;;
39314;SDS011;28703;44.412;11.918;2023-09-19T08:03:49;1328.60;;;932.10;;
39314;SDS011;28703;44.412;11.918;2023-09-19T08:06:14;1390.55;;;938.05;;
39314;SDS011;28703;44.412;11.918;2023-09-19T08:08:42;1505.38;;;956.17;;
39314;SDS011;28703;44.412;11.918;2023-09-19T08:11:07;1316.32;;;920.42;;
39314;SDS011;28703;44.412;11.918;2023-09-19T08:13:40;1295.20;;;922.33;;
39314;SDS011;28703;44.412;11.918;2023-09-19T08:16:12;1405.80;;;941.90;;
39314;SDS011;28703;44.412;11.918;2023-09-19T08:18:40;1442.78;;;949.08;;
39314;SDS011;28703;44.412;11.918;2023-09-19T08:21:06;1532.25;;;973.33;;
39314;SDS011;28703;44.412;11.918;2023-09-19T08:23:35;1505.93;;;964.92;;
39314;SDS011;28703;44.412;11.918;2023-09-19T08:26:02;1427.45;;;944.95;;
39314;SDS011;28703;44.412;11.918;2023-09-19T08:28:32;1220.97;;;914.38;;
39314;SDS011;28703;44.412;11.918;2023-09-19T08:31:16;1033.00;;;909.42;;
39314;SDS011;28703;44.412;11.918;2023-09-19T08:33:42;1108.28;;;914.88;;
39314;SDS011;28703;44.412;11.918;2023-09-19T08:36:10;1149.90;;;945.05;;
39314;SDS011;28703;44.412;11.918;2023-09-19T08:38:40;1130.72;;;937.65;;
39314;SDS011;28703;44.412;11.918;2023-09-19T08:41:24;1087.20;;;920.67;;
39314;SDS011;28703;44.412;11.918;2023-09-19T08:43:50;1126.35;;;934.63;;
39314;SDS011;28703;44.412;11.918;2023-09-19T08:46:16;1140.43;;;897.78;;
39314;SDS011;28703;44.412;11.918;2023-09-19T08:49:04;1035.10;;;869.85;;
39314;SDS011;28703;44.412;11.918;2023-09-19T08:51:53;991.88;;;873.65;;
39314;SDS011;28703;44.412;11.918;2023-09-19T08:54:45;1032.97;;;889.30;;
39314;SDS011;28703;44.412;11.918;2023-09-19T08:57:14;998.03;;;879.78;;
39314;SDS011;28703;44.412;11.918;2023-09-19T08:59:47;1072.47;;;906.35;;
39314;SDS011;28703;44.412;11.918;2023-09-19T09:02:15;1227.75;;;897.42;;
39314;SDS011;28703;44.412;11.918;2023-09-19T09:05:00;979.15;;;865.20;;
39314;SDS011;28703;44.412;11.918;2023-09-19T09:07:48;1291.00;;;895.20;;
39314;SDS011;28703;44.412;11.918;2023-09-19T09:13:21;1317.25;;;896.20;;
39314;SDS011;28703;44.412;11.918;2023-09-19T09:15:47;906.88;;;813.67;;
39314;SDS011;28703;44.412;11.918;2023-09-19T09:18:13;910.67;;;817.22;;
39314;SDS011;28703;44.412;11.918;2023-09-19T09:20:39;905.45;;;812.90;;
39314;SDS011;28703;44.412;11.918;2023-09-19T09:23:07;929.42;;;834.45;;
39314;SDS011;28703;44.412;11.918;2023-09-19T09:28:34;933.08;;;835.53;;
39314;SDS011;28703;44.412;11.918;2023-09-19T09:31:02;1227.53;;;885.78;;
39314;SDS011;28703;44.412;11.918;2023-09-19T09:33:33;949.92;;;844.97;;
39314;SDS011;28703;44.412;11.918;2023-09-19T09:35:59;956.28;;;853.67;;
39314;SDS011;28703;44.412;11.918;2023-09-19T09:38:28;1520.60;;;939.28;;
39314;SDS011;28703;44.412;11.918;2023-09-19T09:41:09;1159.70;;;869.08;;
39314;SDS011;28703;44.412;11.918;2023-09-19T09:43:38;1182.70;;;878.60;;
39314;SDS011;28703;44.412;11.918;2023-09-19T09:46:25;953.80;;;854.42;;
39314;SDS011;28703;44.412;11.918;2023-09-19T09:51:38;1115.55;;;855.45;;
39314;SDS011;28703;44.412;11.918;2023-09-19T09:54:15;946.92;;;847.17;;
39314;SDS011;28703;44.412;11.918;2023-09-19T09:56:55;973.80;;;868.55;;
39314;SDS011;28703;44.412;11.918;2023-09-19T09:59:45;957.92;;;857.65;;
39314;SDS011;28703;44.412;11.918;2023-09-19T10:02:16;973.85;;;870.85;;
39314;SDS011;28703;44.412;11.918;2023-09-19T10:04:53;952.65;;;852.35;;
39314;SDS011;28703;44.412;11.918;2023-09-19T10:07:41;959.85;;;859.55;;
39314;SDS011;28703;44.412;11.918;2023-09-19T10:10:14;1047.38;;;858.80;;
39314;SDS011;28703;44.412;11.918;2023-09-19T10:12:54;980.10;;;876.25;;
39314;SDS011;28703;44.412;11.918;2023-09-19T10:15:42;990.70;;;854.88;;
39314;SDS011;28703;44.412;11.918;2023-09-19T10:21:08;960.03;;;862.42;;
39314;SDS011;28703;44.412;11.918;2023-09-19T10:23:56;990.08;;;858.38;;
39314;SDS011;28703;44.412;11.918;2023-09-19T10:26:27;993.40;;;887.17;;
39314;SDS011;28703;44.412;11.918;2023-09-19T10:28:56;1002.20;;;863.20;;
39314;SDS011;28703;44.412;11.918;2023-09-19T10:31:25;963.42;;;866.53;;
39314;SDS011;28703;44.412;11.918;2023-09-19T10:33:53;985.42;;;884.92;;
39314;SDS011;28703;44.412;11.918;2023-09-19T10:36:39;1027.10;;;915.38;;
39314;SDS011;28703;44.412;11.918;2023-09-19T10:39:15;1087.65;;;927.00;;
39314;SDS011;28703;44.412;11.918;2023-09-19T10:41:51;1010.95;;;904.42;;
39314;SDS011;28703;44.412;11.918;2023-09-19T10:44:24;1027.43;;;912.47;;
39314;SDS011;28703;44.412;11.918;2023-09-19T10:46:51;1088.70;;;936.35;;
39314;SDS011;28703;44.412;11.918;2023-09-19T10:49:19;1001.67;;;895.30;;
39314;SDS011;28703;44.412;11.918;2023-09-19T10:51:47;984.30;;;880.35;;
39314;SDS011;28703;44.412;11.918;2023-09-19T10:54:20;1030.55;;;918.80;;
39314;SDS011;28703;44.412;11.918;2023-09-19T10:57:07;1021.88;;;911.78;;
39314;SDS011;28703;44.412;11.918;2023-09-19T10:59:35;1028.03;;;916.03;;
39314;SDS011;28703;44.412;11.918;2023-09-19T11:02:15;1047.68;;;931.95;;
39314;SDS011;28703;44.412;11.918;2023-09-19T11:05:11;1024.10;;;912.90;;
39314;SDS011;28703;44.412;11.918;2023-09-19T11:10:44;1057.75;;;942.40;;
39314;SDS011;28703;44.412;11.918;2023-09-19T11:13:24;1049.47;;;933.83;;
39314;SDS011;28703;44.412;11.918;2023-09-19T11:46:17;957.30;;;860.47;;
39314;SDS011;28703;44.412;11.918;2023-09-19T11:48:49;1020.72;;;910.90;;
39314;SDS011;28703;44.412;11.918;2023-09-19T11:51:17;957.13;;;860.72;;
39314;SDS011;28703;44.412;11.918;2023-09-19T11:56:44;1119.95;;;947.67;;
39314;SDS011;28703;44.412;11.918;2023-09-19T11:59:47;1116.57;;;938.28;;
39314;SDS011;28703;44.412;11.918;2023-09-19T12:02:14;1176.25;;;968.60;;
39314;SDS011;28703;44.412;11.918;2023-09-19T12:07:42;1147.72;;;968.08;;
39314;SDS011;28703;44.412;11.918;2023-09-19T12:10:11;1106.45;;;947.13;;
39314;SDS011;28703;44.412;11.918;2023-09-19T12:12:39;1144.75;;;951.05;;
39314;SDS011;28703;44.412;11.918;2023-09-19T12:15:07;1031.97;;;906.88;;
39314;SDS011;28703;44.412;11.918;2023-09-19T12:20:04;996.47;;;889.50;;
39314;SDS011;28703;44.412;11.918;2023-09-19T12:22:43;1004.70;;;896.30;;
39314;SDS011;28703;44.412;11.918;2023-09-19T12:25:11;1068.80;;;924.13;;
39314;SDS011;28703;44.412;11.918;2023-09-19T12:27:57;1066.22;;;936.83;;
39314;SDS011;28703;44.412;11.918;2023-09-19T12:30:27;1052.18;;;936.90;;
39314;SDS011;28703;44.412;11.918;2023-09-19T12:32:58;1100.07;;;956.47;;
39314;SDS011;28703;44.412;11.918;2023-09-19T12:35:43;1070.80;;;952.53;;
39314;SDS011;28703;44.412;11.918;2023-09-19T12:38:10;1038.78;;;927.03;;
39314;SDS011;28703;44.412;11.918;2023-09-19T12:40:37;955.50;;;863.15;;
39314;SDS011;28703;44.412;11.918;2023-09-19T12:43:07;910.00;;;825.77;;
39314;SDS011;28703;44.412;11.918;2023-09-19T12:45:34;975.38;;;878.97;;
39314;SDS011;28703;44.412;11.918;2023-09-19T12:48:20;885.35;;;804.65;;
39314;SDS011;28703;44.412;11.918;2023-09-19T12:51:10;892.67;;;809.40;;
39314;SDS011;28703;44.412;11.918;2023-09-19T12:53:41;864.75;;;787.17;;
39314;SDS011;28703;44.412;11.918;2023-09-19T12:56:10;865.90;;;788.17;;
39314;SDS011;28703;44.412;11.918;2023-09-19T13:01:24;810.00;;;739.78;;
39314;SDS011;28703;44.412;11.918;2023-09-19T13:04:27;808.78;;;738.08;;
39314;SDS011;28703;44.412;11.918;2023-09-19T13:06:54;814.13;;;743.42;;
39314;SDS011;28703;44.412;11.918;2023-09-19T13:09:26;867.58;;;783.67;;
39314;SDS011;28703;44.412;11.918;2023-09-19T13:12:34;783.10;;;716.00;;
39314;SDS011;28703;44.412;11.918;2023-09-19T13:15:09;780.33;;;712.13;;
39314;SDS011;28703;44.412;11.918;2023-09-19T13:17:45;824.13;;;751.97;;
39314;SDS011;28703;44.412;11.918;2023-09-19T13:20:31;833.72;;;761.20;;
39314;SDS011;28703;44.412;11.918;2023-09-19T13:23:04;839.25;;;764.00;;
39314;SDS011;28703;44.412;11.918;2023-09-19T13:25:35;830.25;;;757.00;;
39314;SDS011;28703;44.412;11.918;2023-09-19T13:28:05;836.78;;;763.13;;
39314;SDS011;28703;44.412;11.918;2023-09-19T13:30:31;847.42;;;771.97;;
39314;SDS011;28703;44.412;11.918;2023-09-19T13:35:38;863.47;;;786.47;;
39314;SDS011;28703;44.412;11.918;2023-09-19T13:38:06;883.05;;;803.03;;
39314;SDS011;28703;44.412;11.918;2023-09-19T13:41:09;935.50;;;846.40;;
39314;SDS011;28703;44.412;11.918;2023-09-19T13:43:38;955.17;;;862.22;;
39314;SDS011;28703;44.412;11.918;2023-09-19T13:46:05;946.15;;;856.03;;
39314;SDS011;28703;44.412;11.918;2023-09-19T13:48:33;947.45;;;857.60;;
39314;SDS011;28703;44.412;11.918;2023-09-19T13:51:01;954.30;;;863.30;;
39314;SDS011;28703;44.412;11.918;2023-09-19T13:53:29;1070.95;;;955.00;;
39314;SDS011;28703;44.412;11.918;2023-09-19T13:55:54;983.58;;;886.05;;
39314;SDS011;28703;44.412;11.918;2023-09-19T13:58:20;1037.57;;;927.72;;
39314;SDS011;28703;44.412;11.918;2023-09-19T14:00:48;1062.28;;;948.78;;
39314;SDS011;28703;44.412;11.918;2023-09-19T14:03:14;874.45;;;796.72;;
39314;SDS011;28703;44.412;11.918;2023-09-19T14:05:40;1074.72;;;950.35;;
39314;SDS011;28703;44.412;11.918;2023-09-19T14:08:07;946.22;;;856.53;;
39314;SDS011;28703;44.412;11.918;2023-09-19T14:10:33;890.90;;;810.42;;
39314;SDS011;28703;44.412;11.918;2023-09-19T14:15:46;892.28;;;811.58;;
39314;SDS011;28703;44.412;11.918;2023-09-19T14:20:57;879.47;;;800.78;;
39314;SDS011;28703;44.412;11.918;2023-09-19T14:23:22;922.10;;;836.67;;
39314;SDS011;28703;44.412;11.918;2023-09-19T14:26:07;883.10;;;802.78;;
39314;SDS011;28703;44.412;11.918;2023-09-19T14:28:34;913.90;;;829.38;;
39314;SDS011;28703;44.412;11.918;2023-09-19T14:31:10;939.45;;;851.25;;
39314;SDS011;28703;44.412;11.918;2023-09-19T14:33:36;853.92;;;779.80;;
39314;SDS011;28703;44.412;11.918;2023-09-19T14:36:06;942.63;;;853.28;;
39314;SDS011;28703;44.412;11.918;2023-09-19T14:38:35;928.05;;;842.05;;
39314;SDS011;28703;44.412;11.918;2023-09-19T14:41:03;932.78;;;844.72;;
39314;SDS011;28703;44.412;11.918;2023-09-19T14:43:29;954.42;;;862.40;;
39314;SDS011;28703;44.412;11.918;2023-09-19T14:46:13;951.28;;;859.20;;
39314;SDS011;28703;44.412;11.918;2023-09-19T14:48:39;940.35;;;849.95;;
39314;SDS011;28703;44.412;11.918;2023-09-19T14:51:06;909.97;;;826.85;;
39314;SDS011;28703;44.412;11.918;2023-09-19T14:53:51;940.25;;;851.08;;
39314;SDS011;28703;44.412;11.918;2023-09-19T14:56:18;953.05;;;862.35;;
39314;SDS011;28703;44.412;11.918;2023-09-19T14:58:45;947.35;;;856.63;;
39314;SDS011;28703;44.412;11.918;2023-09-19T15:01:12;942.70;;;853.05;;
39314;SDS011;28703;44.412;11.918;2023-09-19T15:03:57;1001.55;;;898.33;;
39314;SDS011;28703;44.412;11.918;2023-09-19T15:06:25;955.72;;;864.38;;
39314;SDS011;28703;44.412;11.918;2023-09-19T15:08:51;991.67;;;892.17;;
39314;SDS011;28703;44.412;11.918;2023-09-19T15:11:17;1020.15;;;913.45;;
39314;SDS011;28703;44.412;11.918;2023-09-19T15:13:45;1021.08;;;915.28;;
39314;SDS011;28703;44.412;11.918;2023-09-19T15:16:30;1020.90;;;914.90;;
39314;SDS011;28703;44.412;11.918;2023-09-19T15:18:57;1012.25;;;909.13;;
39314;SDS011;28703;44.412;11.918;2023-09-19T15:21:23;1041.70;;;933.47;;
39314;SDS011;28703;44.412;11.918;2023-09-19T15:23:49;1025.85;;;919.78;;
39314;SDS011;28703;44.412;11.918;2023-09-19T15:26:15;899.70;;;815.30;;
39314;SDS011;28703;44.412;11.918;2023-09-19T15:28:45;777.55;;;710.63;;
39314;SDS011;28703;44.412;11.918;2023-09-19T15:31:11;637.47;;;584.80;;
39314;SDS011;28703;44.412;11.918;2023-09-19T15:33:38;588.05;;;540.55;;
39314;SDS011;28703;44.412;11.918;2023-09-19T15:38:30;378.40;;;351.27;;
39314;SDS011;28703;44.412;11.918;2023-09-19T15:46:29;432.27;;;398.80;;
39314;SDS011;28703;44.412;11.918;2023-09-19T15:48:56;478.88;;;439.52;;
39314;SDS011;28703;44.412;11.918;2023-09-19T15:51:23;459.67;;;422.35;;
39314;SDS011;28703;44.412;11.918;2023-09-19T15:54:08;535.65;;;491.23;;
39314;SDS011;28703;44.412;11.918;2023-09-19T15:56:36;492.55;;;451.40;;
39314;SDS011;28703;44.412;11.918;2023-09-19T15:59:02;429.75;;;396.05;;